aviador You're here:

LFMD Decoded Metar

CANNES in FRANCE
Report Time2017-11-20 22:30:00
UTC Time2017-11-20 23:06:10
Flight Rules vfr VFR
WindVRB at 02 kt
Visibility9999 m
Phenomena:N/A
Clouds:N/A
Expected CloudBase > 800 ft AGL from Temp-Dew spread
CeilingNone
Temp08°C (ISA -7)
Dew Point06°C (87% RH)
AAT6.4°C
QNH1019 hPa
Density Alt-879 ft
Elevation30 ft
Report Wrong Elevation
Raw Report
METAR LFMD 202230Z AUTO VRB02KT CAVOK 08/06 Q1019=

Extra information for LFMD:More info

Metar Taf Metar & Taf Last 4 Metars F.Rules Stats Wind Profile Meteogram Temp Stats Airport Information Weather charts Add Link Nearby VenuesMetar ALERT Operation Metar Decoded Social comments